createdAt,value
2022-08-08T00:01:21.272Z,21.50
2022-08-08T00:04:35.457Z,21.50
2022-08-08T00:07:12.744Z,21.40
2022-08-08T00:09:43.384Z,21.40
2022-08-08T00:12:15.008Z,21.30
2022-08-08T00:15:17.444Z,21.30
2022-08-08T00:18:17.169Z,21.20
2022-08-08T00:20:52.989Z,21.20
2022-08-08T00:23:55.989Z,21.20
2022-08-08T00:26:38.787Z,21.20
2022-08-08T00:29:45.749Z,21.30
2022-08-08T00:32:35.683Z,21.20
2022-08-08T00:35:48.159Z,21.20
2022-08-08T00:38:51.701Z,21.20
2022-08-08T00:41:54.425Z,21.10
2022-08-08T00:44:27.548Z,21.10
2022-08-08T00:47:19.330Z,21.00
2022-08-08T00:50:07.586Z,21.00
2022-08-08T00:52:40.495Z,21.00
2022-08-08T00:55:52.957Z,21.00
2022-08-08T00:58:54.737Z,21.00
2022-08-08T01:02:01.744Z,21.00
2022-08-08T01:04:42.067Z,20.90
2022-08-08T01:07:57.043Z,20.90
2022-08-08T01:10:35.768Z,20.80
2022-08-08T01:13:38.002Z,20.80
2022-08-08T01:16:37.290Z,20.80
2022-08-08T01:19:42.384Z,20.70
2022-08-08T01:22:35.038Z,20.70
2022-08-08T01:25:42.839Z,20.70
2022-08-08T01:28:47.124Z,20.60
2022-08-08T01:32:14.740Z,20.60
2022-08-08T01:35:11.269Z,20.60
2022-08-08T01:38:07.649Z,20.50
2022-08-08T01:41:00.262Z,20.50
2022-08-08T01:43:50.588Z,20.50
2022-08-08T01:46:52.511Z,20.50
2022-08-08T01:49:45.994Z,20.40
2022-08-08T01:53:28.823Z,20.40
2022-08-08T01:56:28.560Z,20.30
2022-08-08T01:58:50.833Z,20.30
2022-08-08T02:02:00.543Z,20.20
2022-08-08T02:04:53.758Z,20.20
2022-08-08T02:07:36.997Z,20.20
2022-08-08T02:10:29.332Z,20.20
2022-08-08T02:13:53.070Z,20.10
2022-08-08T02:16:34.528Z,20.10
2022-08-08T02:19:41.987Z,20.00
2022-08-08T02:22:31.328Z,20.00
2022-08-08T02:25:16.462Z,20.00
2022-08-08T02:28:04.382Z,19.90
2022-08-08T02:31:19.566Z,19.90
2022-08-08T02:34:32.993Z,19.80
2022-08-08T02:37:52.519Z,19.80
2022-08-08T02:40:16.189Z,19.80
2022-08-08T02:44:43.193Z,19.80
2022-08-08T02:45:57.437Z,19.80
2022-08-08T02:48:40.955Z,19.70
2022-08-08T02:51:38.953Z,19.70
2022-08-08T02:54:26.020Z,19.70
2022-08-08T02:57:17.026Z,19.70
2022-08-08T02:59:57.270Z,19.60
2022-08-08T03:02:53.328Z,19.60
2022-08-08T03:05:46.525Z,19.60
2022-08-08T03:08:52.406Z,19.50
2022-08-08T03:12:02.984Z,19.50
2022-08-08T03:15:58.111Z,19.50
2022-08-08T03:18:07.770Z,19.50
2022-08-08T03:20:51.428Z,19.40
2022-08-08T03:23:23.635Z,19.40
2022-08-08T03:25:51.882Z,19.40
2022-08-08T03:28:27.825Z,19.40
2022-08-08T03:31:13.565Z,19.40
2022-08-08T03:33:55.906Z,19.40
2022-08-08T03:36:30.092Z,19.40
2022-08-08T03:39:15.277Z,19.40
2022-08-08T03:42:12.335Z,19.40
2022-08-08T03:44:35.358Z,19.30
2022-08-08T03:47:19.217Z,19.40
2022-08-08T03:50:00.188Z,19.40
2022-08-08T03:52:31.674Z,19.40
2022-08-08T03:55:09.991Z,19.40
2022-08-08T03:58:31.401Z,19.40
2022-08-08T04:00:27.457Z,19.40
2022-08-08T04:03:03.410Z,19.40
2022-08-08T04:05:36.531Z,19.40
2022-08-08T04:08:08.333Z,19.40
2022-08-08T04:10:36.557Z,19.60
2022-08-08T04:13:17.857Z,19.70
2022-08-08T04:16:03.799Z,19.80
2022-08-08T04:18:32.745Z,20.00
2022-08-08T04:21:00.997Z,20.20
2022-08-08T04:24:04.668Z,20.30
2022-08-08T04:26:19.568Z,20.50
2022-08-08T04:28:46.787Z,20.70
2022-08-08T04:31:30.743Z,20.90
2022-08-08T04:34:00.920Z,21.00
2022-08-08T04:36:28.036Z,21.20
2022-08-08T04:39:47.666Z,21.40
2022-08-08T04:41:45.080Z,21.50
2022-08-08T04:44:12.927Z,21.70
2022-08-08T04:46:40.041Z,21.90
2022-08-08T04:49:06.968Z,22.10
2022-08-08T04:51:57.348Z,22.20
2022-08-08T04:54:39.217Z,22.30
2022-08-08T04:57:09.151Z,22.50
2022-08-08T04:59:42.128Z,22.60
2022-08-08T05:02:09.921Z,22.80
2022-08-08T05:04:41.614Z,22.90
2022-08-08T05:07:11.928Z,23.10
2022-08-08T05:09:42.389Z,23.20
2022-08-08T05:12:09.555Z,23.40
2022-08-08T05:14:47.836Z,23.50
2022-08-08T05:17:15.522Z,23.70
2022-08-08T05:20:04.462Z,23.90
2022-08-08T05:22:32.776Z,23.90
2022-08-08T05:25:01.147Z,24.00
2022-08-08T05:27:33.083Z,24.20
2022-08-08T05:30:00.775Z,24.30
2022-08-08T05:32:29.949Z,24.50
2022-08-08T05:35:04.649Z,24.60
2022-08-08T05:37:52.319Z,24.70
2022-08-08T05:40:21.651Z,24.70
2022-08-08T05:43:17.166Z,24.90
2022-08-08T05:46:02.015Z,25.00
2022-08-08T05:48:34.638Z,25.20
2022-08-08T05:51:14.597Z,25.30
2022-08-08T05:53:56.025Z,25.30
2022-08-08T05:56:37.651Z,25.60
2022-08-08T05:59:12.668Z,25.80
2022-08-08T06:01:55.922Z,25.90
2022-08-08T06:04:27.072Z,25.90
2022-08-08T06:07:04.021Z,26.20
2022-08-08T06:09:59.321Z,26.30
2022-08-08T06:12:30.533Z,26.50
2022-08-08T06:15:02.783Z,26.60
2022-08-08T06:17:51.658Z,26.70
2022-08-08T06:20:22.960Z,26.80
2022-08-08T06:22:53.194Z,27.00
2022-08-08T06:25:33.255Z,27.00
2022-08-08T06:28:29.097Z,27.00
2022-08-08T06:31:03.359Z,27.10
2022-08-08T06:34:26.238Z,27.10
2022-08-08T06:36:53.823Z,27.30
2022-08-08T06:39:22.636Z,27.30
2022-08-08T06:42:03.016Z,27.40
2022-08-08T06:44:31.149Z,27.60
2022-08-08T06:46:59.692Z,27.40
2022-08-08T06:49:55.547Z,27.50
2022-08-08T06:52:17.093Z,27.60
2022-08-08T06:54:48.953Z,27.70
2022-08-08T06:57:16.701Z,27.30
2022-08-08T07:00:10.679Z,27.10
2022-08-08T07:02:34.662Z,27.10
2022-08-08T07:05:11.928Z,27.10
2022-08-08T07:07:50.552Z,27.20
2022-08-08T07:10:21.123Z,27.70
2022-08-08T07:13:02.697Z,27.40
2022-08-08T07:16:04.422Z,27.70
2022-08-08T07:18:57.477Z,28.10
2022-08-08T07:21:31.339Z,28.30
2022-08-08T07:24:06.720Z,28.30
2022-08-08T07:26:40.259Z,28.60
2022-08-08T07:29:08.257Z,28.70
2022-08-08T07:31:39.182Z,27.70
2022-08-08T07:34:08.798Z,28.00
2022-08-08T07:36:42.094Z,27.40
2022-08-08T07:39:22.483Z,27.70
2022-08-08T07:42:04.197Z,28.10
2022-08-08T07:44:38.225Z,28.00
2022-08-08T07:47:11.000Z,28.50
2022-08-08T07:49:40.020Z,29.00
2022-08-08T07:52:13.380Z,29.40
2022-08-08T07:54:58.446Z,29.30
2022-08-08T07:57:49.413Z,29.70
2022-08-08T08:00:17.352Z,29.50
2022-08-08T08:02:47.766Z,29.70
2022-08-08T08:05:33.052Z,29.40
2022-08-08T08:08:15.481Z,29.00
2022-08-08T08:10:50.270Z,28.90
2022-08-08T08:14:07.705Z,28.90
2022-08-08T08:16:39.174Z,29.40
2022-08-08T08:19:15.018Z,29.90
2022-08-08T08:21:57.072Z,30.40
2022-08-08T08:24:30.437Z,30.10
2022-08-08T08:27:00.155Z,29.80
2022-08-08T08:29:30.844Z,30.10
2022-08-08T08:31:59.235Z,29.70
2022-08-08T08:34:32.601Z,29.40
2022-08-08T08:37:08.498Z,29.30
2022-08-08T08:39:59.659Z,29.40
2022-08-08T08:42:29.364Z,29.10
2022-08-08T08:45:21.885Z,28.60
2022-08-08T08:47:58.437Z,28.90
2022-08-08T08:50:32.641Z,29.30
2022-08-08T08:53:27.586Z,29.50
2022-08-08T08:56:02.227Z,29.30
2022-08-08T08:58:46.961Z,29.20
2022-08-08T09:01:20.335Z,28.70
2022-08-08T09:03:50.874Z,28.80
2022-08-08T09:06:34.194Z,28.80
2022-08-08T09:09:04.553Z,28.70
2022-08-08T09:11:33.530Z,28.60
2022-08-08T09:14:02.111Z,28.70
2022-08-08T09:16:32.829Z,28.80
2022-08-08T09:19:00.012Z,28.60
2022-08-08T09:21:59.393Z,28.50
2022-08-08T09:24:17.689Z,28.30
2022-08-08T09:27:20.099Z,28.40
2022-08-08T09:30:06.238Z,28.60
2022-08-08T09:33:12.947Z,28.60
2022-08-08T09:35:37.440Z,28.50
2022-08-08T09:38:05.859Z,28.60
2022-08-08T09:40:44.041Z,28.70
2022-08-08T09:44:05.479Z,29.10
2022-08-08T09:46:25.874Z,29.10
2022-08-08T09:49:04.295Z,28.80
2022-08-08T09:52:06.743Z,28.80
2022-08-08T09:54:44.592Z,29.00
2022-08-08T09:57:17.669Z,28.90
2022-08-08T10:00:14.815Z,29.10
2022-08-08T10:02:40.469Z,29.10
2022-08-08T10:05:14.670Z,29.20
2022-08-08T10:07:51.243Z,29.20
2022-08-08T10:10:36.640Z,29.20
2022-08-08T10:13:32.278Z,29.40
2022-08-08T10:16:03.425Z,29.80
2022-08-08T10:18:35.933Z,30.00
2022-08-08T10:21:24.964Z,29.50
2022-08-08T10:23:55.937Z,29.50
2022-08-08T10:26:57.494Z,29.60
2022-08-08T10:29:24.880Z,29.70
2022-08-08T10:32:16.058Z,29.80
2022-08-08T10:34:57.186Z,29.70
2022-08-08T10:37:30.536Z,29.80
2022-08-08T10:39:59.471Z,29.80
2022-08-08T10:42:34.830Z,29.80
2022-08-08T10:45:07.997Z,29.70
2022-08-08T10:47:43.098Z,29.60
2022-08-08T10:50:15.279Z,29.90
2022-08-08T10:52:44.565Z,30.30
2022-08-08T10:55:39.953Z,30.30
2022-08-08T10:58:06.562Z,30.30
2022-08-08T11:00:48.305Z,30.50
2022-08-08T11:03:36.839Z,30.50
2022-08-08T11:06:12.564Z,30.60
2022-08-08T11:08:50.121Z,30.50
2022-08-08T11:11:32.514Z,30.80
2022-08-08T11:14:12.369Z,30.50
2022-08-08T11:16:46.624Z,30.50
2022-08-08T11:19:15.767Z,30.80
2022-08-08T11:21:53.879Z,30.90
2022-08-08T11:24:26.909Z,30.70
2022-08-08T11:26:58.111Z,30.80
2022-08-08T11:29:41.790Z,30.80
2022-08-08T11:32:16.672Z,31.00
2022-08-08T11:38:34.289Z,31.00
2022-08-08T11:40:26.443Z,31.20
2022-08-08T11:42:55.528Z,31.50
2022-08-08T11:45:23.087Z,31.90
2022-08-08T11:48:02.887Z,31.90
2022-08-08T11:50:33.860Z,31.40
2022-08-08T11:53:06.253Z,31.50
2022-08-08T11:55:36.406Z,31.20
2022-08-08T11:58:14.522Z,31.30
2022-08-08T12:00:50.856Z,31.30
2022-08-08T12:03:21.210Z,31.30
2022-08-08T12:05:49.304Z,31.30
2022-08-08T12:08:18.139Z,31.50
2022-08-08T12:10:50.060Z,31.80
2022-08-08T12:13:38.194Z,31.70
2022-08-08T12:16:18.350Z,31.80
2022-08-08T12:18:56.039Z,31.50
2022-08-08T12:21:58.720Z,31.40
2022-08-08T12:24:28.092Z,30.90
2022-08-08T12:26:58.729Z,30.60
2022-08-08T12:29:40.127Z,30.90
2022-08-08T12:32:19.678Z,30.80
2022-08-08T12:35:01.243Z,30.80
2022-08-08T12:37:40.639Z,31.00
2022-08-08T12:40:23.048Z,31.00
2022-08-08T12:42:53.032Z,31.00
2022-08-08T12:45:58.771Z,31.10
2022-08-08T12:48:36.585Z,31.10
2022-08-08T12:51:07.845Z,31.10
2022-08-08T12:53:58.837Z,31.10
2022-08-08T12:56:34.001Z,31.00
2022-08-08T12:59:01.242Z,31.00
2022-08-08T13:01:37.747Z,30.90
2022-08-08T13:04:18.937Z,30.70
2022-08-08T13:06:57.348Z,30.70
2022-08-08T13:09:43.275Z,30.70
2022-08-08T13:12:30.434Z,30.60
2022-08-08T13:15:00.651Z,30.50
2022-08-08T13:18:07.900Z,30.50
2022-08-08T13:20:19.977Z,30.60
2022-08-08T13:22:47.682Z,30.60
2022-08-08T13:25:16.223Z,30.60
2022-08-08T13:27:43.975Z,30.50
2022-08-08T13:30:18.883Z,30.60
2022-08-08T13:32:54.457Z,30.60
2022-08-08T13:35:38.285Z,30.70
2022-08-08T13:38:08.078Z,30.70
2022-08-08T13:40:41.095Z,30.80
2022-08-08T13:43:08.742Z,30.70
2022-08-08T13:45:36.998Z,30.70
2022-08-08T13:48:13.128Z,30.80
2022-08-08T13:50:53.902Z,30.90
2022-08-08T13:53:31.585Z,30.80
2022-08-08T13:56:11.457Z,30.90
2022-08-08T13:58:57.414Z,30.90
2022-08-08T14:01:42.170Z,30.80
2022-08-08T14:04:24.685Z,30.70
2022-08-08T14:07:04.567Z,30.70
2022-08-08T14:10:05.792Z,30.60
2022-08-08T14:12:29.544Z,30.50
2022-08-08T14:14:56.781Z,30.50
2022-08-08T14:17:57.363Z,30.40
2022-08-08T14:20:15.826Z,30.40
2022-08-08T14:23:10.262Z,30.30
2022-08-08T14:25:53.995Z,30.30
2022-08-08T14:28:23.867Z,30.30
2022-08-08T14:31:09.383Z,30.30
2022-08-08T14:33:37.103Z,30.30
2022-08-08T14:36:13.716Z,30.30
2022-08-08T14:38:52.929Z,30.30
2022-08-08T14:41:45.608Z,30.20
2022-08-08T14:44:19.582Z,30.20
2022-08-08T14:46:58.139Z,30.10
2022-08-08T14:49:51.388Z,30.00
2022-08-08T14:52:21.581Z,29.90
2022-08-08T14:54:49.390Z,29.80
2022-08-08T14:57:17.000Z,29.80
2022-08-08T14:59:50.887Z,29.80
2022-08-08T15:02:25.856Z,29.80
2022-08-08T15:05:08.069Z,29.80
2022-08-08T15:07:39.410Z,29.70
2022-08-08T15:10:09.346Z,29.60
2022-08-08T15:12:37.787Z,29.50
2022-08-08T15:15:06.909Z,29.40
2022-08-08T15:17:40.843Z,29.40
2022-08-08T15:20:14.149Z,29.40
2022-08-08T15:22:42.557Z,29.30
2022-08-08T15:25:17.642Z,29.30
2022-08-08T15:28:04.585Z,29.30
2022-08-08T15:30:43.794Z,29.20
2022-08-08T15:33:14.387Z,29.20
2022-08-08T15:35:59.948Z,29.20
2022-08-08T15:38:40.632Z,29.10
2022-08-08T15:41:17.429Z,29.10
2022-08-08T15:44:00.661Z,29.00
2022-08-08T15:46:35.033Z,29.00
2022-08-08T15:49:04.071Z,28.90
2022-08-08T15:51:33.649Z,28.90
2022-08-08T15:54:01.376Z,28.80
2022-08-08T15:56:28.340Z,28.80
2022-08-08T15:58:55.230Z,28.80
2022-08-08T16:01:22.716Z,28.70
2022-08-08T16:03:51.744Z,28.70
2022-08-08T16:06:27.787Z,28.60
2022-08-08T16:13:00.157Z,28.60
2022-08-08T16:13:04.329Z,28.50
2022-08-08T16:14:32.483Z,28.50
2022-08-08T16:17:00.257Z,28.50
2022-08-08T16:19:27.725Z,28.40
2022-08-08T16:21:57.959Z,28.40
2022-08-08T16:24:25.117Z,28.30
2022-08-08T16:26:52.056Z,28.10
2022-08-08T16:29:23.845Z,28.00
2022-08-08T16:32:11.257Z,28.00
2022-08-08T16:34:40.585Z,28.00
2022-08-08T16:37:07.640Z,28.00
2022-08-08T16:40:00.325Z,28.00
2022-08-08T16:42:28.523Z,27.90
2022-08-08T16:44:59.484Z,27.90
2022-08-08T16:47:40.530Z,27.80
2022-08-08T16:50:15.888Z,27.70
2022-08-08T16:55:04.911Z,27.60
2022-08-08T16:55:52.953Z,27.40
2022-08-08T16:58:25.768Z,27.20
2022-08-08T17:00:55.025Z,27.00
2022-08-08T17:03:24.898Z,26.80
2022-08-08T17:06:37.702Z,26.60
2022-08-08T17:08:57.522Z,26.40
2022-08-08T17:11:27.921Z,26.20
2022-08-08T17:14:01.623Z,26.20
2022-08-08T17:16:29.322Z,26.10
2022-08-08T17:18:58.302Z,26.00
2022-08-08T17:21:26.056Z,25.90
2022-08-08T17:24:00.422Z,25.90
2022-08-08T17:26:31.046Z,25.80
2022-08-08T17:29:04.476Z,25.80
2022-08-08T17:31:43.448Z,25.80
2022-08-08T17:34:52.769Z,25.70
2022-08-08T17:37:03.910Z,25.60
2022-08-08T17:40:04.163Z,25.50
2022-08-08T17:42:21.491Z,25.50
2022-08-08T17:44:52.781Z,25.30
2022-08-08T17:47:27.641Z,25.30
2022-08-08T17:50:00.943Z,25.30
2022-08-08T17:52:30.931Z,25.20
2022-08-08T17:54:58.015Z,25.10
2022-08-08T17:57:28.966Z,25.10
2022-08-08T18:00:04.101Z,25.00
2022-08-08T18:02:31.195Z,25.10
2022-08-08T18:04:58.853Z,25.10
2022-08-08T18:08:02.390Z,25.10
2022-08-08T18:10:15.737Z,25.10
2022-08-08T18:12:46.040Z,25.10
2022-08-08T18:15:14.730Z,25.10
2022-08-08T18:18:27.469Z,25.10
2022-08-08T18:20:36.994Z,25.10
2022-08-08T18:23:16.171Z,25.10
2022-08-08T18:25:44.286Z,25.20
2022-08-08T18:28:13.560Z,25.10
2022-08-08T18:30:42.732Z,25.10
2022-08-08T18:33:36.933Z,25.00
2022-08-08T18:36:03.011Z,25.00
2022-08-08T18:38:32.362Z,25.10
2022-08-08T18:41:03.199Z,25.10
2022-08-08T18:43:38.064Z,25.10
2022-08-08T18:46:54.513Z,25.10
2022-08-08T18:48:57.150Z,25.10
2022-08-08T18:51:53.561Z,25.20
2022-08-08T18:54:22.603Z,25.20
2022-08-08T18:56:56.835Z,25.10
2022-08-08T18:59:23.934Z,25.00
2022-08-08T19:02:25.813Z,25.00
2022-08-08T19:04:38.462Z,25.00
2022-08-08T19:07:05.564Z,25.00
2022-08-08T19:09:49.617Z,25.00
2022-08-08T19:12:26.559Z,24.90
2022-08-08T19:14:53.799Z,24.90
2022-08-08T19:17:29.224Z,24.80
2022-08-08T19:20:09.063Z,24.70
2022-08-08T19:22:36.608Z,24.60
2022-08-08T19:26:01.449Z,24.60
2022-08-08T19:27:57.269Z,24.60
2022-08-08T19:30:27.358Z,24.50
2022-08-08T19:32:58.140Z,24.40
2022-08-08T19:35:44.396Z,24.40
2022-08-08T19:38:17.488Z,24.40
2022-08-08T19:40:54.334Z,24.40
2022-08-08T19:43:28.119Z,24.30
2022-08-08T19:45:59.773Z,24.30
2022-08-08T19:48:28.665Z,24.20
2022-08-08T19:50:59.069Z,24.20
2022-08-08T19:53:51.998Z,24.10
2022-08-08T19:56:16.509Z,24.10
2022-08-08T19:58:54.645Z,24.00
2022-08-08T20:01:31.782Z,23.90
2022-08-08T20:04:09.306Z,23.90
2022-08-08T20:06:37.034Z,23.80
2022-08-08T20:09:08.642Z,23.90
2022-08-08T20:11:42.850Z,23.80
2022-08-08T20:14:34.928Z,23.80
2022-08-08T20:16:57.525Z,23.90
2022-08-08T20:19:34.344Z,23.90
2022-08-08T20:22:13.201Z,24.00
2022-08-08T20:24:47.675Z,23.90
2022-08-08T20:27:19.928Z,23.90
2022-08-08T20:30:00.401Z,23.80
2022-08-08T20:32:29.788Z,23.70
2022-08-08T20:35:01.158Z,23.70
2022-08-08T20:37:53.082Z,23.60
2022-08-08T20:40:17.256Z,23.50
2022-08-08T20:42:54.887Z,23.50
2022-08-08T20:45:57.651Z,23.60
2022-08-08T20:48:09.629Z,23.60
2022-08-08T20:50:36.930Z,23.70
2022-08-08T20:53:06.898Z,23.60
2022-08-08T20:55:43.327Z,23.60
2022-08-08T20:58:22.992Z,23.70
2022-08-08T21:00:50.372Z,23.60
2022-08-08T21:03:17.449Z,23.60
2022-08-08T21:05:49.418Z,23.60
2022-08-08T21:08:36.953Z,23.50
2022-08-08T21:11:13.432Z,23.50
2022-08-08T21:13:42.059Z,23.50
2022-08-08T21:16:20.321Z,23.50
2022-08-08T21:18:57.558Z,23.50
2022-08-08T21:21:41.419Z,23.40
2022-08-08T21:24:26.874Z,23.40
2022-08-08T21:26:57.084Z,23.40
2022-08-08T21:30:05.728Z,23.40
2022-08-08T21:32:19.011Z,23.40
2022-08-08T21:34:51.819Z,23.40
2022-08-08T21:37:54.867Z,23.40
2022-08-08T21:40:11.673Z,23.40
2022-08-08T21:42:39.812Z,23.50
2022-08-08T21:45:44.890Z,23.50
2022-08-08T21:48:16.263Z,23.50
2022-08-08T21:50:43.235Z,23.50
2022-08-08T21:54:23.406Z,23.50
2022-08-08T21:56:20.067Z,23.40
2022-08-08T21:58:44.898Z,23.50
2022-08-08T22:01:30.024Z,23.50
2022-08-08T22:04:10.324Z,23.40
2022-08-08T22:06:39.591Z,23.40
2022-08-08T22:09:09.682Z,23.40
2022-08-08T22:11:56.548Z,23.40
2022-08-08T22:14:26.576Z,23.50
2022-08-08T22:16:54.547Z,23.50
2022-08-08T22:19:24.104Z,23.50
2022-08-08T22:21:53.073Z,23.50
2022-08-08T22:24:28.333Z,23.50
2022-08-08T22:27:02.387Z,23.60
2022-08-08T22:29:59.478Z,23.60
2022-08-08T22:32:18.977Z,23.70
2022-08-08T22:34:50.658Z,23.70
2022-08-08T22:37:49.455Z,23.60
2022-08-08T22:40:11.748Z,23.50
2022-08-08T22:42:40.282Z,23.50
2022-08-08T22:45:12.391Z,23.40
2022-08-08T22:47:41.222Z,23.50
2022-08-08T22:50:25.596Z,23.40
2022-08-08T22:54:27.981Z,23.40
2022-08-08T22:55:57.792Z,23.40
2022-08-08T22:58:28.724Z,23.30
2022-08-08T23:01:00.003Z,23.30
2022-08-08T23:03:34.141Z,23.30
2022-08-08T23:06:16.604Z,23.30
2022-08-08T23:08:55.872Z,23.40
2022-08-08T23:12:17.728Z,23.30
2022-08-08T23:14:15.817Z,23.30
2022-08-08T23:16:45.669Z,23.20
2022-08-08T23:19:15.554Z,23.20
2022-08-08T23:21:46.858Z,23.20
2022-08-08T23:24:22.774Z,23.20
2022-08-08T23:26:55.676Z,23.20
2022-08-08T23:29:29.916Z,23.20
2022-08-08T23:31:58.705Z,23.10
2022-08-08T23:34:25.860Z,23.10
2022-08-08T23:37:00.601Z,23.00
2022-08-08T23:39:42.049Z,23.00
2022-08-08T23:42:16.739Z,23.00
2022-08-08T23:44:45.247Z,23.00
2022-08-08T23:49:05.327Z,22.90
2022-08-08T23:50:02.871Z,22.90
2022-08-08T23:52:32.981Z,22.80
2022-08-08T23:55:13.892Z,22.70
2022-08-08T23:57:52.102Z,22.80
